createdAt,value
2023-12-09T00:04:34.859Z,92888.00
2023-12-09T00:09:37.563Z,92895.44
2023-12-09T00:14:40.417Z,92877.16
2023-12-09T00:19:43.171Z,92890.78
2023-12-09T00:24:45.888Z,92883.34
2023-12-09T00:29:48.567Z,92875.19
2023-12-09T00:34:51.681Z,92874.00
2023-12-09T00:39:54.335Z,92883.38
2023-12-09T00:44:56.954Z,92881.00
2023-12-09T00:49:59.573Z,92880.66
2023-12-09T00:55:02.687Z,92879.47
2023-12-09T01:00:06.333Z,92871.59
2023-12-09T01:05:10.834Z,92875.44
2023-12-09T01:10:13.560Z,92861.41
2023-12-09T01:15:16.688Z,92857.16
2023-12-09T01:20:20.113Z,92849.41
2023-12-09T01:25:22.793Z,92847.13
2023-12-09T01:30:25.361Z,92836.25
2023-12-09T01:35:28.529Z,92842.91
2023-12-09T01:40:31.360Z,92828.56
2023-12-09T01:45:34.391Z,92845.34
2023-12-09T01:50:37.452Z,92822.75
2023-12-09T01:55:42.949Z,92844.91
2023-12-09T02:00:46.055Z,92845.19
2023-12-09T02:05:48.833Z,92834.69
2023-12-09T02:11:18.711Z,92825.75
2023-12-09T02:16:31.238Z,92831.63
2023-12-09T02:22:02.749Z,92819.63
2023-12-09T02:27:16.201Z,92822.75
2023-12-09T02:32:22.614Z,92827.47
2023-12-09T02:37:28.233Z,92812.31
2023-12-09T02:42:33.070Z,92808.41
2023-12-09T02:47:35.946Z,92808.84
2023-12-09T02:52:38.587Z,92816.63
2023-12-09T02:57:41.332Z,92816.66
2023-12-09T03:02:43.915Z,92832.56
2023-12-09T03:07:47.093Z,92827.88
2023-12-09T03:12:49.652Z,92840.31
2023-12-09T03:17:52.321Z,92846.91
2023-12-09T03:22:55.743Z,92829.44
2023-12-09T03:28:01.247Z,92831.81
2023-12-09T03:33:04.311Z,92845.03
2023-12-09T03:38:07.326Z,92842.69
2023-12-09T03:43:11.109Z,92851.25
2023-12-09T03:48:14.012Z,92829.13
2023-12-09T03:53:16.783Z,92834.97
2023-12-09T03:58:19.513Z,92831.50
2023-12-09T04:03:22.239Z,92839.28
2023-12-09T04:08:24.911Z,92830.38
2023-12-09T04:13:28.607Z,92820.63
2023-12-09T04:18:31.781Z,92821.78
2023-12-09T04:23:34.465Z,92837.38
2023-12-09T04:28:37.261Z,92840.06
2023-12-09T04:33:40.060Z,92861.47
2023-12-09T04:38:42.831Z,92853.69
2023-12-09T04:43:45.460Z,92868.41
2023-12-09T04:48:49.011Z,92868.72
2023-12-09T04:53:52.243Z,92879.91
2023-12-09T04:58:55.367Z,92889.22
2023-12-09T05:03:58.496Z,92902.06
2023-12-09T05:09:01.288Z,92893.47
2023-12-09T05:14:04.095Z,92899.38
2023-12-09T05:19:10.351Z,92894.72
2023-12-09T05:24:13.580Z,92904.09
2023-12-09T05:29:17.293Z,92895.50
2023-12-09T05:34:20.140Z,92893.22
2023-12-09T05:39:22.967Z,92919.69
2023-12-09T05:44:26.246Z,92917.81
2023-12-09T05:49:29.127Z,92936.50
2023-12-09T05:54:33.646Z,92924.53
2023-12-09T05:59:36.263Z,92922.66
2023-12-09T06:04:40.073Z,92905.50
2023-12-09T06:09:42.777Z,92936.31
2023-12-09T06:14:45.877Z,92960.84
2023-12-09T06:19:48.534Z,92950.72
2023-12-09T06:24:52.916Z,92960.81
2023-12-09T06:29:56.147Z,92970.97
2023-12-09T06:34:58.760Z,92984.97
2023-12-09T06:40:03.770Z,92967.78
2023-12-09T06:45:07.556Z,93001.31
2023-12-09T06:50:10.620Z,93005.16
2023-12-09T06:55:13.863Z,93012.91
2023-12-09T07:00:17.893Z,93027.75
2023-12-09T07:05:22.261Z,93029.25
2023-12-09T07:10:25.412Z,93033.13
2023-12-09T07:15:29.291Z,93035.84
2023-12-09T07:20:32.088Z,93060.38
2023-12-09T07:25:34.831Z,93058.78
2023-12-09T07:30:38.075Z,93074.41
2023-12-09T07:35:45.809Z,93070.13
2023-12-09T07:40:50.630Z,93084.88
2023-12-09T07:45:54.443Z,93089.13
2023-12-09T07:50:57.182Z,93095.38
2023-12-09T07:56:00.022Z,93119.47
2023-12-09T08:01:05.137Z,93122.16
2023-12-09T08:06:10.901Z,93122.59
2023-12-09T08:11:13.826Z,93137.72
2023-12-09T08:16:17.019Z,93131.09
2023-12-09T08:21:47.371Z,93149.44
2023-12-09T08:26:50.440Z,93145.13
2023-12-09T08:31:53.446Z,93160.34
2023-12-09T08:36:56.583Z,93163.84
2023-12-09T08:41:59.439Z,93173.56
2023-12-09T08:47:02.288Z,93191.88
2023-12-09T08:52:06.321Z,93180.44
2023-12-09T08:57:09.448Z,93211.34
2023-12-09T09:02:13.697Z,93212.94
2023-12-09T09:07:17.039Z,93217.69
2023-12-09T09:12:19.748Z,93216.84
2023-12-09T09:17:22.979Z,93209.50
2023-12-09T09:22:26.028Z,93207.22
2023-12-09T09:27:29.043Z,93196.69
2023-12-09T09:32:33.489Z,93221.31
2023-12-09T09:37:37.461Z,93232.16
2023-12-09T09:42:43.560Z,93225.44
2023-12-09T09:47:50.166Z,93232.84
2023-12-09T09:52:55.466Z,93226.56
2023-12-09T09:57:59.036Z,93229.25
2023-12-09T10:03:04.390Z,93243.28
2023-12-09T10:08:08.263Z,93242.88
2023-12-09T10:13:11.076Z,93246.34
2023-12-09T10:18:17.948Z,93246.75
2023-12-09T10:23:21.941Z,93244.28
2023-12-09T10:28:25.512Z,93270.03
2023-12-09T10:33:39.992Z,93259.84
2023-12-09T10:38:46.426Z,93268.72
2023-12-09T10:43:49.683Z,93275.72
2023-12-09T10:48:53.101Z,93279.63
2023-12-09T10:53:56.373Z,93274.91
2023-12-09T10:59:01.331Z,93268.66
2023-12-09T11:04:07.378Z,93267.16
2023-12-09T11:09:11.981Z,93265.97
2023-12-09T11:14:17.530Z,93266.38
2023-12-09T11:19:24.242Z,93261.28
2023-12-09T11:29:35.320Z,93221.66
2023-12-09T11:34:58.147Z,93292.03
2023-12-09T11:40:01.686Z,93296.75
2023-12-09T11:45:08.046Z,93295.56
2023-12-09T11:50:14.583Z,93313.84
2023-12-09T11:55:24.201Z,93309.16
2023-12-09T12:00:33.136Z,93324.00
2023-12-09T12:05:43.645Z,93314.25
2023-12-09T12:10:53.154Z,93315.09
2023-12-09T12:16:05.623Z,93319.34
2023-12-09T12:21:12.015Z,93332.97
2023-12-09T12:26:21.256Z,93298.28
2023-12-09T12:31:30.439Z,93309.28
2023-12-09T12:36:45.671Z,93305.84
2023-12-09T12:42:00.792Z,93306.59
2023-12-09T12:47:21.420Z,93312.41
2023-12-09T12:52:33.247Z,93310.09
2023-12-09T12:57:40.042Z,93311.59
2023-12-09T13:02:43.540Z,93325.94
2023-12-09T13:07:50.769Z,93329.47
2023-12-09T13:12:57.250Z,93339.53
2023-12-09T13:18:04.608Z,93337.22
2023-12-09T13:23:11.404Z,93349.28
2023-12-09T13:28:20.526Z,93349.31
2023-12-09T13:33:28.960Z,93355.56
2023-12-09T13:38:37.015Z,93368.00
2023-12-09T13:43:47.558Z,93372.69
2023-12-09T13:48:54.836Z,93371.50
2023-12-09T13:54:09.458Z,93375.03
2023-12-09T13:59:19.565Z,93379.31
2023-12-09T14:04:27.308Z,93383.94
2023-12-09T14:09:33.866Z,93383.22
2023-12-09T14:14:43.608Z,93380.38
2023-12-09T14:19:51.714Z,93385.09
2023-12-09T14:24:59.120Z,93381.63
2023-12-09T14:30:10.893Z,93379.00
2023-12-09T14:35:22.258Z,93360.59
2023-12-09T14:40:32.644Z,93392.63
2023-12-09T14:45:46.025Z,93400.38
2023-12-09T14:51:01.373Z,93412.81
2023-12-09T14:56:14.146Z,93419.81
2023-12-09T15:01:19.917Z,93419.03
2023-12-09T15:06:34.124Z,93414.94
2023-12-09T15:11:48.712Z,93442.72
2023-12-09T15:17:02.484Z,93449.69
2023-12-09T15:22:18.760Z,93459.81
2023-12-09T15:27:28.305Z,93479.63
2023-12-09T15:32:34.832Z,93496.34
2023-12-09T15:37:44.122Z,93496.75
2023-12-09T15:42:51.994Z,93503.75
2023-12-09T15:48:05.936Z,93502.19
2023-12-09T15:53:18.340Z,93487.25
2023-12-09T15:58:29.784Z,93526.72
2023-12-09T16:03:35.573Z,93532.97
2023-12-09T16:08:40.112Z,93522.44
2023-12-09T16:13:42.815Z,93532.19
2023-12-09T16:18:47.049Z,93541.19
2023-12-09T16:23:50.212Z,93537.69
2023-12-09T16:28:54.069Z,93542.41
2023-12-09T16:33:57.167Z,93549.41
2023-12-09T16:39:01.045Z,93552.47
2023-12-09T16:44:04.654Z,93552.06
2023-12-09T16:49:09.504Z,93570.72
2023-12-09T16:54:13.183Z,93564.56
2023-12-09T16:59:18.179Z,93573.44
2023-12-09T17:04:21.225Z,93587.91
2023-12-09T17:09:24.561Z,93596.88
2023-12-09T17:14:27.329Z,93605.88
2023-12-09T17:19:31.444Z,93603.19
2023-12-09T17:24:34.888Z,93612.13
2023-12-09T17:29:37.605Z,93615.19
2023-12-09T17:34:41.460Z,93606.97
2023-12-09T17:39:44.783Z,93614.38
2023-12-09T17:44:48.117Z,93617.09
2023-12-09T17:49:51.769Z,93626.41
2023-12-09T17:54:54.923Z,93621.75
2023-12-09T17:59:57.633Z,93621.41
2023-12-09T18:05:00.514Z,93608.81
2023-12-09T18:10:04.193Z,93612.16
2023-12-09T18:15:08.540Z,93625.78
2023-12-09T18:20:12.590Z,93627.41
2023-12-09T18:25:16.069Z,93636.41
2023-12-09T18:30:22.141Z,93631.88
2023-12-09T18:35:25.801Z,93642.09
2023-12-09T18:40:29.045Z,93633.09
2023-12-09T18:45:32.290Z,93634.34
2023-12-09T18:50:34.977Z,93639.03
2023-12-09T18:55:38.634Z,93652.28
2023-12-09T19:00:41.427Z,93651.94
2023-12-09T19:05:44.351Z,93655.50
2023-12-09T19:10:48.202Z,93671.47
2023-12-09T19:15:51.437Z,93659.28
2023-12-09T19:20:55.003Z,93659.72
2023-12-09T19:25:58.367Z,93669.16
2023-12-09T19:31:01.050Z,93671.00
2023-12-09T19:36:04.509Z,93664.72
2023-12-09T19:41:08.054Z,93660.81
2023-12-09T19:46:11.148Z,93668.69
2023-12-09T19:51:15.376Z,93669.75
2023-12-09T19:56:18.389Z,93657.94
2023-12-09T20:01:22.241Z,93670.53
2023-12-09T20:06:26.856Z,93669.78
2023-12-09T20:11:31.573Z,93663.88
2023-12-09T20:16:35.175Z,93667.72
2023-12-09T20:21:38.430Z,93675.13
2023-12-09T20:26:41.145Z,93678.63
2023-12-09T20:31:46.300Z,93682.50
2023-12-09T20:36:50.686Z,93678.63
2023-12-09T20:41:53.312Z,93680.50
2023-12-09T20:46:57.198Z,93676.28
2023-12-09T20:52:00.523Z,93689.41
2023-12-09T20:57:04.125Z,93698.78
2023-12-09T21:02:07.803Z,93698.84
2023-12-09T21:07:11.371Z,93701.25
2023-12-09T21:12:15.077Z,93704.72
2023-12-09T21:17:19.127Z,93706.66
2023-12-09T21:22:23.488Z,93714.03
2023-12-09T21:27:26.017Z,93707.28
2023-12-09T21:32:29.893Z,93713.81
2023-12-09T21:37:33.875Z,93709.34
2023-12-09T21:42:37.716Z,93713.50
2023-12-09T21:47:42.719Z,93730.63
2023-12-09T21:52:46.624Z,93730.56
2023-12-09T21:57:50.670Z,93726.75
2023-12-09T22:02:54.794Z,93719.72
2023-12-09T22:07:58.370Z,93732.72
2023-12-09T22:13:01.476Z,93738.06
2023-12-09T22:18:05.161Z,93740.41
2023-12-09T22:23:08.484Z,93742.28
2023-12-09T22:28:12.327Z,93740.66
2023-12-09T22:33:15.941Z,93738.63
2023-12-09T22:38:20.275Z,93741.59
2023-12-09T22:43:23.786Z,93729.50
2023-12-09T22:48:27.767Z,93716.53
2023-12-09T22:53:30.561Z,93730.38
2023-12-09T22:58:34.229Z,93728.56
2023-12-09T23:03:37.382Z,93724.03
2023-12-09T23:08:40.996Z,93728.41
2023-12-09T23:13:44.439Z,93714.19
2023-12-09T23:18:47.760Z,93695.22
2023-12-09T23:23:51.417Z,93702.81
2023-12-09T23:28:54.509Z,93694.06
2023-12-09T23:33:58.138Z,93689.94
2023-12-09T23:39:01.362Z,93688.34
2023-12-09T23:44:04.414Z,93691.47
2023-12-09T23:49:08.435Z,93699.22
2023-12-09T23:54:12.046Z,93705.03
2023-12-09T23:59:15.434Z,93690.06
